Alligator, Mississippi
Current Conditions -  °F | °C
As of 1:15 PM on Friday 24 Oct 2014 (Local Time) from KCKM Reporting Station
Clear Clear  
Wind Chill: 68°   Ceiling: Unl
Heat Index: 68°   Visibility: 10mi
Dew Point: 48°   Wind: 7mph
Humidity: 49%   Direction: 350°N
Pressure: 30.14"   Gusts: NA
Location:  34.09°N, 90.72°W
Report Text: KCKM 241815Z AUTO 35006KT 10SM CLR 20/09 A3014 RMK AO1
Loading
Personal Weather Stations






























Interactive Weather Map New forecast layout! Learn more

10-Day Weather Forecast

Advertisements
Track Severe Weather on mobile